Time;durP1;ratioP1;P1;durP2;ratioP2;P2;SDS_P1;SDS_P2;PMS_P1;PMS_P2;Temp;Humidity;BMP_temperature;BMP_pressure;BME280_temperature;BME280_humidity;BME280_pressure;Samples;Min_cycle;Max_cycle;Signal;HPM_P1;HPM_P2
2022/01/31 00:02:12;;;;;;;15.50;3.78;;;3.90;99.90;;;;;;4984679;28;20078;-73
2022/01/31 00:04:38;;;;;;;19.13;3.85;;;4.70;99.90;;;;;;4982029;28;20410;-74
2022/01/31 00:07:04;;;;;;;11.05;2.88;;;3.90;99.90;;;;;;4986012;28;20045;-74
2022/01/31 00:09:30;;;;;;;13.73;4.13;;;3.90;99.90;;;;;;4984536;28;20379;-74
2022/01/31 00:12:19;;;;;;;11.49;3.29;;;3.90;99.90;;;;;;4175753;28;10002027;-74
2022/01/31 00:14:48;;;;;;;23.67;4.57;;;4.00;99.90;;;;;;1547967;28;10002007;-74
2022/01/31 00:17:14;;;;;;;16.13;5.22;;;3.90;99.90;;;;;;4989898;28;20080;-74
2022/01/31 00:19:41;;;;;;;17.27;3.78;;;3.90;99.90;;;;;;4987085;28;20505;-74
2022/01/31 00:22:09;;;;;;;21.13;4.35;;;3.90;99.90;;;;;;4981117;28;20065;-74
2022/01/31 00:24:36;;;;;;;20.92;5.40;;;3.90;99.90;;;;;;5000183;28;20192;-74
2022/01/31 00:27:02;;;;;;;23.08;5.20;;;4.00;99.90;;;;;;4989097;28;20046;-74
2022/01/31 00:29:28;;;;;;;20.55;4.60;;;3.90;99.90;;;;;;4969831;28;20045;-74
2022/01/31 00:31:54;;;;;;;16.83;4.45;;;3.90;99.90;;;;;;4989152;28;20066;-74
2022/01/31 00:34:20;;;;;;;17.10;4.05;;;3.90;99.90;;;;;;4985790;28;20544;-75
2022/01/31 00:36:45;;;;;;;21.40;5.53;;;3.90;99.90;;;;;;4989035;28;20515;-74
2022/01/31 00:39:12;;;;;;;15.00;4.72;;;3.90;99.90;;;;;;4975394;28;20057;-75
2022/01/31 00:41:37;;;;;;;18.17;5.68;;;3.90;99.90;;;;;;4969096;28;20510;-74
2022/01/31 00:47:18;;;;;;;10.95;4.40;;;3.90;99.90;;;;;;4966096;28;20040;-75
2022/01/31 00:49:50;;;;;;;19.58;5.05;;;4.00;99.90;;;;;;4930054;28;20118;-75
2022/01/31 00:52:16;;;;;;;19.80;4.28;;;4.10;99.90;;;;;;4951671;28;20042;-75
2022/01/31 00:54:42;;;;;;;22.90;7.40;;;4.00;99.90;;;;;;4990626;28;20034;-75
2022/01/31 00:57:07;;;;;;;18.15;6.68;;;4.00;99.90;;;;;;4968209;28;20042;-75
2022/01/31 00:59:33;;;;;;;22.10;6.05;;;4.00;99.90;;;;;;4983776;28;20038;-75
2022/01/31 01:01:59;;;;;;;18.77;5.53;;;4.00;99.90;;;;;;4971730;28;20056;-75
2022/01/31 01:04:24;;;;;;;18.98;5.35;;;4.00;99.90;;;;;;4988334;28;20122;-75
2022/01/31 01:06:50;;;;;;;21.17;5.88;;;4.00;99.90;;;;;;4981636;28;20049;-75
2022/01/31 01:09:16;;;;;;;20.63;5.88;;;4.00;99.90;;;;;;4971180;28;20041;-75
2022/01/31 01:11:41;;;;;;;24.27;6.60;;;4.00;99.90;;;;;;4989873;28;20128;-74
2022/01/31 01:14:07;;;;;;;18.13;5.70;;;3.90;99.90;;;;;;4988428;28;20113;-73
2022/01/31 01:16:33;;;;;;;26.67;7.03;;;4.00;99.90;;;;;;4984133;28;20364;-73
2022/01/31 01:18:59;;;;;;;17.35;4.95;;;3.90;99.90;;;;;;4983188;28;20470;-74
2022/01/31 01:21:25;;;;;;;15.05;5.70;;;4.00;99.90;;;;;;5004964;28;20037;-74
2022/01/31 01:23:50;;;;;;;19.42;5.97;;;3.90;99.90;;;;;;4988013;28;20092;-73
2022/01/31 01:26:16;;;;;;;21.58;6.40;;;3.90;99.90;;;;;;4989749;28;20045;-73
2022/01/31 01:28:44;;;;;;;21.73;6.43;;;3.90;99.90;;;;;;4980319;28;20045;-73
2022/01/31 01:31:10;;;;;;;21.20;7.32;;;3.90;99.90;;;;;;4990939;28;20501;-73
2022/01/31 01:33:39;;;;;;;22.63;7.65;;;3.90;99.90;;;;;;4964121;28;20069;-73
2022/01/31 01:36:06;;;;;;;22.05;6.60;;;3.90;99.90;;;;;;4983780;28;20137;-73
2022/01/31 01:38:33;;;;;;;18.85;6.63;;;3.80;99.90;;;;;;4971633;28;20117;-72
2022/01/31 01:41:00;;;;;;;15.93;5.93;;;3.80;99.90;;;;;;4992351;28;20121;-72
2022/01/31 01:43:28;;;;;;;23.83;6.95;;;3.80;99.90;;;;;;4984169;28;20068;-72
2022/01/31 01:45:55;;;;;;;25.00;8.43;;;3.70;99.90;;;;;;4990025;28;20087;-73
2022/01/31 01:48:22;;;;;;;16.08;7.90;;;3.60;99.90;;;;;;4995714;28;20128;-73
2022/01/31 01:50:48;;;;;;;18.95;7.60;;;3.60;99.90;;;;;;5010542;28;20075;-72
2022/01/31 01:53:14;;;;;;;21.13;8.45;;;3.50;99.90;;;;;;5027604;28;20029;-73
2022/01/31 01:55:40;;;;;;;16.20;7.63;;;3.50;99.90;;;;;;4990383;28;20064;-73
2022/01/31 01:58:13;;;;;;;19.38;7.10;;;3.50;99.90;;;;;;4989992;28;20034;-73
2022/01/31 02:00:53;;;;;;;21.95;8.10;;;3.40;99.90;;;;;;4995351;28;20104;-73
2022/01/31 02:03:20;;;;;;;25.33;9.75;;;3.30;99.90;;;;;;4996901;28;20042;-73
2022/01/31 02:05:47;;;;;;;23.08;10.63;;;3.20;99.90;;;;;;4994320;28;20096;-73
2022/01/31 02:08:17;;;;;;;21.05;10.05;;;3.20;99.90;;;;;;4995936;28;20038;-73
2022/01/31 02:10:43;;;;;;;25.38;10.98;;;3.10;99.90;;;;;;4983200;28;20501;-73
2022/01/31 02:13:09;;;;;;;22.80;9.50;;;3.10;99.90;;;;;;5010487;28;20041;-72
2022/01/31 02:15:36;;;;;;;22.45;9.80;;;3.00;99.90;;;;;;4995993;28;20139;-73
2022/01/31 02:18:03;;;;;;;17.15;9.77;;;3.00;99.90;;;;;;4995735;28;20061;-73
2022/01/31 02:20:29;;;;;;;18.90;11.25;;;3.10;99.90;;;;;;5008371;28;20391;-73
2022/01/31 02:22:55;;;;;;;19.50;8.95;;;2.90;99.90;;;;;;4943883;28;20169;-72
2022/01/31 02:25:21;;;;;;;23.05;11.52;;;2.90;99.90;;;;;;4974320;28;20044;-73
2022/01/31 02:27:46;;;;;;;25.40;12.40;;;2.90;99.90;;;;;;4988481;28;20124;-73
2022/01/31 02:30:16;;;;;;;23.95;12.15;;;2.80;99.90;;;;;;4990972;28;20038;-73
2022/01/31 02:32:42;;;;;;;17.50;10.05;;;2.90;99.90;;;;;;4941976;28;20089;-73
2022/01/31 02:35:19;;;;;;;23.85;12.05;;;3.70;99.90;;;;;;312200;28;10022657;-73
2022/01/31 02:37:44;;;;;;;23.10;13.32;;;2.90;99.90;;;;;;4831279;28;5001972;-73
2022/01/31 02:40:10;;;;;;;22.42;11.95;;;2.80;99.90;;;;;;4985247;28;20049;-73
2022/01/31 02:42:36;;;;;;;24.02;12.57;;;2.80;99.90;;;;;;4971970;28;20069;-73
2022/01/31 02:45:03;;;;;;;21.27;11.15;;;2.90;99.90;;;;;;4986078;28;20072;-72
2022/01/31 02:47:34;;;;;;;24.98;13.77;;;2.90;99.90;;;;;;4976002;28;20038;-72
2022/01/31 02:50:02;;;;;;;20.33;12.63;;;2.80;99.90;;;;;;4991179;28;20120;-73
2022/01/31 02:52:32;;;;;;;24.38;13.18;;;3.80;99.90;;;;;;4960862;28;20033;-73
2022/01/31 02:54:58;;;;;;;25.77;14.60;;;2.80;99.90;;;;;;4984371;28;20184;-73
2022/01/31 02:57:24;;;;;;;20.45;9.13;;;2.90;99.90;;;;;;4976624;28;20117;-73
2022/01/31 02:59:50;;;;;;;22.80;12.32;;;2.90;99.90;;;;;;4972349;28;20351;-73
2022/01/31 03:02:16;;;;;;;20.77;11.07;;;2.90;99.90;;;;;;4989566;28;20113;-73
2022/01/31 03:04:42;;;;;;;11.65;6.10;;;2.90;99.90;;;;;;5002095;28;20034;-73
2022/01/31 03:07:07;;;;;;;17.73;8.77;;;3.20;99.90;;;;;;4972812;28;20040;-73
2022/01/31 03:09:33;;;;;;;12.73;6.95;;;3.00;99.90;;;;;;4987122;28;20069;-74
2022/01/31 03:11:59;;;;;;;15.20;8.73;;;3.00;99.90;;;;;;4990109;28;20053;-73
2022/01/31 03:14:25;;;;;;;15.57;8.50;;;3.00;99.90;;;;;;4987353;28;20121;-73
2022/01/31 03:16:51;;;;;;;20.20;9.80;;;4.50;99.90;;;;;;4987430;28;20084;-73
2022/01/31 03:19:37;;;;;;;12.82;7.60;;;3.10;99.90;;;;;;2192310;28;10022948;-74
2022/01/31 03:22:06;;;;;;;13.35;7.60;;;3.10;99.90;;;;;;3095366;28;10002183;-74
2022/01/31 03:24:33;;;;;;;14.48;7.10;;;3.40;99.90;;;;;;4986763;28;20042;-74
2022/01/31 03:26:59;;;;;;;10.18;5.85;;;3.10;99.90;;;;;;4982626;28;20125;-74
2022/01/31 03:29:25;;;;;;;9.20;6.03;;;3.10;99.90;;;;;;4982684;28;20442;-74
2022/01/31 03:31:51;;;;;;;13.90;5.47;;;3.10;99.90;;;;;;4992501;28;20073;-73
2022/01/31 03:34:16;;;;;;;12.02;7.60;;;3.10;99.90;;;;;;4985998;28;20062;-74
2022/01/31 03:36:43;;;;;;;18.15;9.18;;;3.10;99.90;;;;;;4984736;28;20314;-74
2022/01/31 03:39:09;;;;;;;11.60;7.53;;;3.10;99.90;;;;;;4982762;28;20044;-74
2022/01/31 03:41:34;;;;;;;13.88;8.73;;;4.00;99.90;;;;;;4989752;28;20057;-73
2022/01/31 03:44:00;;;;;;;19.38;10.50;;;3.10;99.90;;;;;;4988046;28;20042;-74
2022/01/31 03:46:26;;;;;;;14.00;8.43;;;3.20;99.90;;;;;;4985483;28;20050;-74
2022/01/31 03:48:52;;;;;;;15.23;8.02;;;3.20;99.90;;;;;;4991257;28;20057;-74
2022/01/31 03:51:18;;;;;;;16.20;8.60;;;3.20;99.90;;;;;;4986217;28;20038;-74
2022/01/31 03:53:44;;;;;;;16.55;8.77;;;3.30;99.90;;;;;;4980578;28;20043;-74
2022/01/31 03:56:10;;;;;;;11.15;7.57;;;3.30;99.90;;;;;;4968981;28;20549;-73
2022/01/31 03:58:36;;;;;;;14.02;9.00;;;3.40;99.90;;;;;;4990442;28;20065;-73
2022/01/31 04:01:02;;;;;;;16.67;9.38;;;3.50;99.90;;;;;;5000984;28;20042;-73
2022/01/31 04:03:28;;;;;;;12.50;8.05;;;3.50;99.90;;;;;;4986260;28;20506;-73
2022/01/31 04:05:54;;;;;;;18.77;7.97;;;3.60;99.90;;;;;;5001685;28;20100;-74
2022/01/31 04:08:19;;;;;;;21.38;8.25;;;3.70;99.90;;;;;;4983070;28;20045;-72
2022/01/31 04:10:45;;;;;;;15.20;7.57;;;3.80;99.90;;;;;;4982631;28;20038;-73
2022/01/31 04:13:11;;;;;;;20.25;6.38;;;3.90;99.90;;;;;;4986028;28;20038;-73
2022/01/31 04:15:39;;;;;;;21.42;8.00;;;4.00;99.90;;;;;;4989711;28;20394;-73
2022/01/31 04:18:05;;;;;;;21.00;6.63;;;4.20;99.90;;;;;;4991517;28;20152;-74
2022/01/31 04:20:31;;;;;;;23.27;6.28;;;4.30;99.90;;;;;;4988779;28;20152;-74
2022/01/31 04:23:20;;;;;;;14.45;4.97;;;4.50;99.90;;;;;;5004979;28;20037;-74
2022/01/31 04:30:50;;;;;;;18.67;4.53;;;4.90;99.90;;;;;;4986393;28;20594;-74
2022/01/31 04:33:16;;;;;;;20.92;3.22;;;5.00;99.90;;;;;;4986519;28;20062;-74
2022/01/31 04:35:41;;;;;;;24.08;4.45;;;5.40;99.90;;;;;;4990082;28;20037;-74
2022/01/31 04:38:07;;;;;;;18.00;4.00;;;5.20;99.90;;;;;;4984845;28;20069;-75
2022/01/31 04:40:33;;;;;;;19.67;5.00;;;5.80;99.90;;;;;;4988345;28;20120;-72
2022/01/31 04:42:59;;;;;;;19.13;3.95;;;5.60;99.90;;;;;;4988324;28;20061;-73
2022/01/31 04:45:24;;;;;;;16.70;3.08;;;5.70;99.90;;;;;;5007905;28;20038;-74
2022/01/31 04:47:50;;;;;;;18.65;3.70;;;5.30;99.90;;;;;;4988544;28;20084;-73
2022/01/31 04:50:16;;;;;;;15.50;3.35;;;5.50;99.90;;;;;;4976964;28;20041;-73
2022/01/31 04:52:42;;;;;;;17.65;2.38;;;5.50;99.90;;;;;;4986416;28;20034;-73
2022/01/31 04:55:09;;;;;;;13.35;2.83;;;5.20;99.90;;;;;;4986635;28;20042;-74
2022/01/31 04:57:35;;;;;;;11.00;2.00;;;5.00;99.90;;;;;;4989354;28;20034;-73
2022/01/31 05:00:07;;;;;;;13.68;2.90;;;5.10;99.90;;;;;;4994197;28;20048;-73
2022/01/31 05:02:33;;;;;;;13.27;2.55;;;4.70;99.90;;;;;;4984540;28;20038;-74
2022/01/31 05:04:59;;;;;;;14.23;3.85;;;5.10;99.90;;;;;;4972151;28;20633;-74
2022/01/31 05:07:25;;;;;;;11.50;3.13;;;5.10;99.90;;;;;;4986307;28;20048;-74
2022/01/31 05:09:51;;;;;;;19.77;3.53;;;4.90;99.90;;;;;;4965213;28;20053;-74
2022/01/31 05:12:17;;;;;;;21.77;3.58;;;5.00;99.90;;;;;;4967368;28;20042;-74
2022/01/31 05:14:42;;;;;;;19.92;3.50;;;4.80;99.90;;;;;;4983658;28;20177;-73
2022/01/31 05:17:08;;;;;;;14.43;3.40;;;4.80;99.90;;;;;;4987460;28;20034;-74
2022/01/31 05:19:34;;;;;;;20.20;3.92;;;5.10;99.90;;;;;;4971248;28;20026;-73
2022/01/31 05:22:00;;;;;;;17.20;3.63;;;5.00;99.90;;;;;;4987438;28;20089;-74
2022/01/31 05:24:27;;;;;;;18.13;3.70;;;5.00;99.90;;;;;;4903295;28;20164;-73
2022/01/31 05:26:56;;;;;;;15.45;4.95;;;5.20;99.90;;;;;;119980;28;10022710;-74
2022/01/31 05:29:23;;;;;;;23.98;4.03;;;5.30;99.90;;;;;;4812728;28;5001814;-74
2022/01/31 05:31:49;;;;;;;16.23;3.15;;;4.90;99.90;;;;;;4988090;28;20042;-74
2022/01/31 05:34:17;;;;;;;11.68;2.45;;;5.00;99.90;;;;;;4986021;28;20058;-76
2022/01/31 05:36:43;;;;;;;9.50;2.63;;;5.10;99.90;;;;;;4981811;28;20160;-75
2022/01/31 05:39:09;;;;;;;10.88;1.73;;;5.30;99.90;;;;;;4966781;28;20137;-74
2022/01/31 05:41:34;;;;;;;9.68;1.63;;;5.10;99.90;;;;;;4983209;28;20042;-74
2022/01/31 05:44:01;;;;;;;10.98;1.98;;;4.80;99.90;;;;;;4990687;28;20509;-74
2022/01/31 05:46:27;;;;;;;10.05;1.52;;;4.90;99.90;;;;;;5002053;28;20038;-74
2022/01/31 05:48:53;;;;;;;8.65;1.13;;;5.10;99.90;;;;;;5009312;28;20481;-74
2022/01/31 05:51:21;;;;;;;6.05;0.93;;;4.80;99.90;;;;;;4974350;28;20045;-74
2022/01/31 05:53:49;;;;;;;9.90;1.58;;;5.00;99.90;;;;;;4975256;28;20538;-74
2022/01/31 05:56:16;;;;;;;5.72;1.58;;;4.80;99.90;;;;;;4988371;28;20136;-74
2022/01/31 05:58:43;;;;;;;9.85;1.33;;;4.70;99.90;;;;;;4976686;28;20505;-74
2022/01/31 06:01:09;;;;;;;9.25;1.38;;;4.90;99.90;;;;;;4989144;28;20081;-74
2022/01/31 06:03:35;;;;;;;4.97;2.15;;;4.70;99.90;;;;;;4995142;28;20038;-74
2022/01/31 06:06:01;;;;;;;11.18;1.40;;;4.60;99.90;;;;;;4992248;28;20068;-74
2022/01/31 06:08:27;;;;;;;9.23;1.50;;;4.60;99.90;;;;;;5005144;28;20077;-74
2022/01/31 06:10:52;;;;;;;9.55;1.77;;;5.00;99.90;;;;;;4974177;28;20089;-74
2022/01/31 06:13:27;;;;;;;11.30;1.85;;;4.70;99.90;;;;;;4988885;28;20482;-74
2022/01/31 06:15:54;;;;;;;8.13;1.50;;;4.70;99.90;;;;;;4986933;28;20077;-74
2022/01/31 06:18:19;;;;;;;9.88;1.25;;;4.90;99.90;;;;;;4991907;28;20406;-74
2022/01/31 06:20:45;;;;;;;8.48;2.33;;;5.50;99.90;;;;;;4989439;28;20069;-75
2022/01/31 06:23:12;;;;;;;10.07;1.25;;;4.50;99.90;;;;;;4989460;28;20414;-74
2022/01/31 06:25:39;;;;;;;7.72;1.67;;;4.60;99.90;;;;;;4986104;28;20041;-75
2022/01/31 06:28:06;;;;;;;7.90;1.45;;;4.70;99.90;;;;;;4988942;28;20073;-74
2022/01/31 06:30:33;;;;;;;15.90;1.98;;;4.80;99.90;;;;;;4988109;28;20029;-74
2022/01/31 06:32:59;;;;;;;8.88;1.55;;;4.90;99.90;;;;;;4971006;28;20061;-74
2022/01/31 06:35:25;;;;;;;11.18;1.52;;;5.10;99.90;;;;;;4986024;28;20072;-74
2022/01/31 06:37:51;;;;;;;11.88;2.15;;;5.40;99.90;;;;;;4992111;28;20429;-74
2022/01/31 06:40:17;;;;;;;13.68;2.55;;;4.90;99.90;;;;;;4987633;28;20042;-74
2022/01/31 06:42:43;;;;;;;13.20;1.83;;;4.70;99.90;;;;;;4983744;28;20479;-74
2022/01/31 06:45:10;;;;;;;9.85;1.17;;;4.50;99.90;;;;;;4979733;28;20041;-74
2022/01/31 06:47:36;;;;;;;5.97;1.30;;;4.80;99.90;;;;;;4991912;28;20068;-74
2022/01/31 06:50:04;;;;;;;12.07;1.65;;;4.70;99.90;;;;;;4985671;28;20134;-73
2022/01/31 06:52:33;;;;;;;7.15;1.20;;;4.60;99.90;;;;;;4973952;28;20037;-74
2022/01/31 06:55:03;;;;;;;6.25;1.60;;;4.60;99.90;;;;;;4989867;28;20468;-74
2022/01/31 06:57:33;;;;;;;11.15;1.92;;;4.60;99.90;;;;;;4984386;28;20042;-74
2022/01/31 07:00:04;;;;;;;7.15;1.50;;;4.70;99.90;;;;;;4983474;28;20049;-74
2022/01/31 07:02:30;;;;;;;10.45;1.70;;;4.50;99.90;;;;;;4989447;28;20038;-74
2022/01/31 07:04:56;;;;;;;15.32;2.17;;;4.90;99.90;;;;;;4975130;28;20124;-74
2022/01/31 07:07:22;;;;;;;11.98;2.25;;;5.00;99.90;;;;;;4992678;28;20128;-74
2022/01/31 07:09:47;;;;;;;14.18;1.70;;;5.00;99.90;;;;;;4982628;28;20412;-74
2022/01/31 07:12:16;;;;;;;7.63;1.15;;;5.00;99.90;;;;;;4998325;28;20116;-75
2022/01/31 07:14:42;;;;;;;12.15;1.50;;;5.10;99.90;;;;;;4990471;28;20042;-74
2022/01/31 07:17:08;;;;;;;10.07;1.67;;;5.30;99.90;;;;;;4991119;28;20469;-73
2022/01/31 07:19:37;;;;;;;8.23;1.65;;;5.00;99.90;;;;;;4982075;28;20449;-74
2022/01/31 07:22:06;;;;;;;12.98;1.58;;;4.80;99.90;;;;;;4999305;28;20120;-74
2022/01/31 07:27:00;;;;;;;12.65;2.47;;;4.80;99.90;;;;;;4985366;28;20073;-75
2022/01/31 07:29:26;;;;;;;11.48;1.95;;;4.90;99.90;;;;;;4996303;28;20104;-75
2022/01/31 07:31:52;;;;;;;10.15;1.85;;;5.10;99.90;;;;;;4973271;28;20398;-75
2022/01/31 07:34:20;;;;;;;13.13;2.53;;;5.40;99.90;;;;;;4984622;28;20046;-75
2022/01/31 07:36:47;;;;;;;9.77;2.33;;;5.20;99.90;;;;;;4976796;28;20474;-75
2022/01/31 07:39:13;;;;;;;13.30;2.20;;;5.20;99.90;;;;;;4987238;28;20638;-74
2022/01/31 07:41:39;;;;;;;12.15;1.88;;;;;;;;;;4972650;28;20093;-74
2022/01/31 07:44:05;;;;;;;8.23;1.73;;;;;;;;;;4976359;28;20563;-74
2022/01/31 07:46:31;;;;;;;15.02;2.05;;;4.80;99.90;;;;;;4974771;28;20045;-74
2022/01/31 07:48:57;;;;;;;13.30;2.20;;;4.80;99.90;;;;;;4988297;28;20129;-74
2022/01/31 07:51:23;;;;;;;15.25;1.95;;;4.80;99.90;;;;;;4992002;28;20108;-74
2022/01/31 07:53:48;;;;;;;7.88;1.67;;;4.80;99.90;;;;;;4992303;28;20131;-74
2022/01/31 07:56:16;;;;;;;9.90;1.85;;;4.80;99.90;;;;;;4988921;28;20030;-73
2022/01/31 07:58:42;;;;;;;14.35;2.17;;;4.80;99.90;;;;;;4972930;28;20046;-74
2022/01/31 08:01:08;;;;;;;12.82;1.88;;;4.80;99.90;;;;;;4984958;28;20040;-74
2022/01/31 08:03:35;;;;;;;14.50;2.38;;;4.80;99.90;;;;;;4988073;28;20490;-73
2022/01/31 08:06:02;;;;;;;9.38;1.95;;;5.20;99.90;;;;;;4959300;28;20243;-74
2022/01/31 08:08:29;;;;;;;15.80;1.75;;;4.90;99.90;;;;;;4974119;28;20037;-74
2022/01/31 08:10:59;;;;;;;9.70;2.17;;;4.80;99.90;;;;;;4985409;28;20047;-75
2022/01/31 08:13:25;;;;;;;12.38;1.55;;;4.80;99.90;;;;;;4986330;28;20033;-74
2022/01/31 08:18:38;;;;;;;13.07;2.05;;;4.80;99.90;;;;;;4999033;28;20132;-74
2022/01/31 08:21:04;;;;;;;9.43;2.00;;;4.80;99.90;;;;;;4973386;28;20050;-74
2022/01/31 08:23:31;;;;;;;10.98;1.58;;;4.80;99.90;;;;;;4988293;28;20026;-75
2022/01/31 08:25:59;;;;;;;7.65;1.33;;;4.90;99.90;;;;;;4988237;28;20053;-73
2022/01/31 08:28:34;;;;;;;6.20;1.58;;;4.90;99.90;;;;;;4972250;28;20061;-74
2022/01/31 08:31:07;;;;;;;9.73;1.60;;;4.90;99.90;;;;;;4970602;28;20132;-75
2022/01/31 08:36:02;;;;;;;13.00;1.75;;;4.60;99.90;;;;;;4988223;28;20049;-75
2022/01/31 08:38:27;;;;;;;11.40;1.83;;;5.00;99.90;;;;;;4988735;28;20065;-75
2022/01/31 08:40:53;;;;;;;12.60;2.30;;;5.00;99.90;;;;;;4987010;28;20065;-74
2022/01/31 08:43:20;;;;;;;12.02;2.95;;;5.00;99.90;;;;;;4987151;28;20038;-74
2022/01/31 08:45:46;;;;;;;11.00;1.73;;;5.10;99.90;;;;;;4990440;28;20048;-75
2022/01/31 08:48:11;;;;;;;10.13;2.15;;;5.00;99.90;;;;;;4989751;28;20042;-73
2022/01/31 08:50:37;;;;;;;18.55;2.03;;;4.90;99.90;;;;;;4971458;28;20617;-74
2022/01/31 08:53:04;;;;;;;9.18;1.92;;;5.00;99.90;;;;;;4990239;28;20050;-74
2022/01/31 08:55:30;;;;;;;10.68;2.40;;;5.10;99.90;;;;;;4983049;28;20453;-74
2022/01/31 08:57:57;;;;;;;6.82;1.80;;;5.80;99.90;;;;;;4972913;28;20039;-74
2022/01/31 09:00:34;;;;;;;9.55;1.73;;;5.20;99.90;;;;;;4982895;28;20497;-74
2022/01/31 09:03:39;;;;;;;7.38;1.52;;;5.30;99.90;;;;;;4991141;28;20092;-74
2022/01/31 09:05:48;;;;;;;7.53;1.67;;;5.30;99.90;;;;;;4991591;28;20052;-74
2022/01/31 09:08:13;;;;;;;6.38;1.42;;;5.90;99.90;;;;;;5002405;28;20042;-74
2022/01/31 09:10:40;;;;;;;8.25;1.50;;;5.40;99.90;;;;;;5000105;28;20049;-74
2022/01/31 09:13:06;;;;;;;8.27;1.95;;;5.50;99.90;;;;;;5004763;28;20042;-74
2022/01/31 09:15:32;;;;;;;6.88;1.40;;;5.50;99.90;;;;;;4994596;28;20040;-74
2022/01/31 09:17:58;;;;;;;12.00;2.33;;;5.50;99.90;;;;;;5009254;28;20030;-74
2022/01/31 09:20:23;;;;;;;9.70;1.80;;;5.50;99.90;;;;;;4960542;28;20121;-74
2022/01/31 09:23:03;;;;;;;8.45;1.95;;;6.10;99.90;;;;;;1059579;28;10022551;-74
2022/01/31 09:25:31;;;;;;;14.05;2.75;;;5.50;99.90;;;;;;4130019;28;10001948;-75
2022/01/31 09:27:58;;;;;;;11.68;2.25;;;5.70;99.90;;;;;;4991138;28;20049;-74
2022/01/31 09:30:26;;;;;;;9.63;1.80;;;5.80;99.90;;;;;;4977854;28;20510;-74
2022/01/31 09:32:56;;;;;;;9.18;1.83;;;5.80;99.90;;;;;;4991055;28;20188;-74
2022/01/31 09:35:23;;;;;;;12.25;1.95;;;6.20;99.90;;;;;;4987432;28;20116;-75
2022/01/31 09:37:48;;;;;;;11.95;1.73;;;6.60;99.90;;;;;;4995692;28;20038;-75
2022/01/31 09:40:19;;;;;;;9.15;2.05;;;5.90;99.90;;;;;;4976849;28;20514;-74
2022/01/31 09:51:12;;;;;;;13.13;2.80;;;6.10;99.90;;;;;;4989720;28;20054;-74
2022/01/31 09:53:41;;;;;;;8.32;1.70;;;6.20;99.90;;;;;;4986695;28;20054;-75
2022/01/31 09:56:09;;;;;;;12.30;2.85;;;6.70;99.90;;;;;;5007989;28;20187;-75
2022/01/31 09:58:36;;;;;;;8.15;1.67;;;6.00;99.90;;;;;;4992271;28;20030;-75
2022/01/31 10:01:09;;;;;;;8.00;1.73;;;6.20;99.90;;;;;;4977991;28;20128;-75
2022/01/31 10:03:57;;;;;;;7.40;1.92;;;6.30;99.90;;;;;;4987304;28;20068;-75
2022/01/31 10:06:32;;;;;;;12.45;1.77;;;6.30;99.90;;;;;;4987977;28;20057;-75
2022/01/31 10:09:08;;;;;;;6.15;1.58;;;6.30;99.90;;;;;;4992948;28;20052;-74
2022/01/31 10:11:46;;;;;;;6.53;1.45;;;6.10;99.90;;;;;;4981648;28;20040;-75
2022/01/31 10:16:58;;;;;;;9.98;1.67;;;6.10;99.90;;;;;;4989894;28;20406;-75
2022/01/31 10:19:23;;;;;;;8.35;1.33;;;6.10;99.90;;;;;;4994148;28;20054;-73
2022/01/31 10:22:02;;;;;;;6.18;1.33;;;6.10;99.90;;;;;;4976186;28;20044;-75
2022/01/31 10:24:30;;;;;;;10.25;1.40;;;6.20;99.90;;;;;;4992618;28;20037;-75
2022/01/31 10:26:56;;;;;;;8.68;1.30;;;6.20;99.90;;;;;;4993639;28;20184;-76
2022/01/31 10:29:24;;;;;;;10.02;1.50;;;6.20;99.90;;;;;;4993958;28;20053;-75
2022/01/31 10:32:03;;;;;;;7.47;1.10;;;6.30;99.90;;;;;;4994720;28;20184;-75
2022/01/31 10:34:32;;;;;;;6.90;1.13;;;6.30;99.90;;;;;;4996063;28;20066;-75
2022/01/31 10:37:13;;;;;;;7.07;1.38;;;6.40;99.90;;;;;;4997504;28;20409;-75
2022/01/31 10:54:12;;;;;;;10.30;2.55;;;7.00;99.90;;;;;;4992455;28;20049;-76
2022/01/31 10:56:51;;;;;;;10.20;1.65;;;7.10;99.90;;;;;;4969683;28;20045;-75
2022/01/31 10:59:22;;;;;;;12.10;2.00;;;7.10;99.90;;;;;;4988625;28;20042;-74
2022/01/31 11:01:51;;;;;;;11.75;2.13;;;7.20;99.90;;;;;;4991577;28;20042;-74
2022/01/31 11:04:17;;;;;;;12.25;1.50;;;7.20;99.90;;;;;;4984313;28;20054;-75
2022/01/31 11:06:45;;;;;;;8.65;2.00;;;7.40;99.90;;;;;;4989018;28;20095;-75
2022/01/31 11:09:18;;;;;;;14.55;2.38;;;7.20;99.90;;;;;;4970734;28;20506;-74
2022/01/31 11:11:46;;;;;;;14.95;2.00;;;7.10;99.90;;;;;;4994868;28;20034;-75
2022/01/31 11:14:14;;;;;;;11.00;3.00;;;7.30;99.90;;;;;;4958711;28;20038;-74
2022/01/31 11:16:43;;;;;;;11.95;2.78;;;6.90;99.90;;;;;;4982880;28;20061;-74
2022/01/31 11:19:10;;;;;;;12.55;1.85;;;7.10;99.90;;;;;;4984713;28;20071;-75
2022/01/31 11:21:39;;;;;;;13.43;2.10;;;7.10;99.90;;;;;;4985729;28;20046;-75
2022/01/31 11:24:17;;;;;;;9.73;1.70;;;7.20;99.90;;;;;;4970857;28;20034;-74
2022/01/31 11:26:48;;;;;;;11.48;2.33;;;7.40;99.90;;;;;;4988556;28;20046;-74
2022/01/31 11:29:15;;;;;;;12.23;2.00;;;7.30;99.90;;;;;;4969270;28;20038;-75
2022/01/31 11:31:41;;;;;;;5.45;1.45;;;7.30;99.90;;;;;;4990006;28;20034;-74
2022/01/31 11:34:08;;;;;;;15.27;2.85;;;7.30;99.90;;;;;;4982074;28;21025;-75
2022/01/31 11:36:36;;;;;;;11.70;1.88;;;7.40;99.90;;;;;;4982593;28;20438;-75
2022/01/31 11:39:05;;;;;;;8.88;1.92;;;;;;;;;;4991845;28;20105;-75
2022/01/31 11:41:32;;;;;;;11.57;1.88;;;7.60;99.90;;;;;;5003532;28;20435;-75
2022/01/31 11:44:06;;;;;;;14.45;2.25;;;7.60;99.90;;;;;;4989526;28;20049;-76
2022/01/31 11:46:34;;;;;;;13.30;2.38;;;7.80;99.90;;;;;;4987815;28;20045;-75
2022/01/31 11:49:09;;;;;;;12.27;1.90;;;8.10;99.90;;;;;;4986748;28;20482;-75
2022/01/31 11:52:08;;;;;;;9.20;2.17;;;8.30;99.90;;;;;;4983146;28;20048;-76
2022/01/31 11:54:51;;;;;;;16.40;2.47;;;8.40;99.90;;;;;;4983887;28;20060;-74
2022/01/31 11:57:19;;;;;;;10.27;2.50;;;8.30;99.90;;;;;;4985999;28;20045;-75
2022/01/31 11:59:54;;;;;;;9.15;2.00;;;8.40;99.90;;;;;;4987863;28;20087;-75
2022/01/31 12:02:22;;;;;;;13.25;1.92;;;8.30;99.90;;;;;;4971105;28;20437;-74
2022/01/31 12:04:50;;;;;;;10.45;1.95;;;8.40;99.90;;;;;;4988140;28;20095;-74
2022/01/31 12:07:39;;;;;;;10.57;2.30;;;8.70;99.90;;;;;;4991481;28;20061;-74
2022/01/31 12:10:09;;;;;;;19.45;3.65;;;8.30;99.90;;;;;;4990144;28;20049;-74
2022/01/31 12:23:50;;;;;;;10.05;2.30;;;8.30;99.90;;;;;;4982714;28;20456;-75
2022/01/31 12:26:27;;;;;;;8.88;2.13;;;8.10;99.90;;;;;;4969407;28;20490;-74
2022/01/31 12:28:55;;;;;;;16.83;2.70;;;8.20;99.90;;;;;;4986473;28;20076;-75
2022/01/31 12:31:36;;;;;;;16.23;2.25;;;8.60;99.90;;;;;;4989569;28;20042;-75
2022/01/31 12:34:09;;;;;;;13.68;2.60;;;8.30;99.90;;;;;;4996107;28;20057;-75
2022/01/31 12:36:35;;;;;;;10.15;2.15;;;8.30;99.90;;;;;;4991591;28;20573;-75
2022/01/31 12:39:05;;;;;;;13.43;2.45;;;8.20;99.90;;;;;;5006254;28;20121;-74
2022/01/31 12:41:32;;;;;;;17.10;3.53;;;8.10;99.90;;;;;;5002262;28;20057;-74
2022/01/31 12:44:29;;;;;;;11.95;2.33;;;8.70;99.90;;;;;;4985954;28;20584;-74
2022/01/31 12:47:23;;;;;;;15.93;3.28;;;8.20;99.90;;;;;;4989081;28;20038;-74
2022/01/31 12:50:24;;;;;;;22.58;2.38;;;8.30;99.90;;;;;;4059206;28;10002011;-74
2022/01/31 12:52:50;;;;;;;11.07;2.40;;;8.30;99.90;;;;;;3258104;28;10002214;-74
2022/01/31 12:55:16;;;;;;;15.32;2.22;;;8.30;99.90;;;;;;4984713;28;20044;-75
2022/01/31 12:57:53;;;;;;;11.80;3.17;;;8.00;99.90;;;;;;4975090;28;20472;-75
2022/01/31 13:00:41;;;;;;;12.70;2.53;;;7.90;99.90;;;;;;4988186;28;20405;-74
2022/01/31 13:03:08;;;;;;;13.48;2.28;;;7.90;99.90;;;;;;4989627;28;20049;-74
2022/01/31 13:05:36;;;;;;;12.20;2.42;;;7.80;99.90;;;;;;4988638;28;20456;-74
2022/01/31 13:08:25;;;;;;;15.45;2.63;;;7.80;99.90;;;;;;4986183;28;20057;-73
2022/01/31 13:10:52;;;;;;;16.00;2.78;;;7.90;99.90;;;;;;4989328;28;20046;-73
2022/01/31 13:13:38;;;;;;;17.40;2.42;;;8.00;99.90;;;;;;4975628;28;20034;-74
2022/01/31 13:16:09;;;;;;;11.30;3.75;;;7.90;99.90;;;;;;5009749;28;20106;-73
2022/01/31 13:18:35;;;;;;;15.95;4.63;;;7.90;99.90;;;;;;4973313;28;20061;-73
2022/01/31 13:21:03;;;;;;;13.52;2.70;;;7.90;99.90;;;;;;4987462;28;20677;-74
2022/01/31 13:23:35;;;;;;;18.05;3.38;;;7.90;99.90;;;;;;4988391;28;20151;-73
2022/01/31 13:26:07;;;;;;;9.40;2.40;;;7.90;99.90;;;;;;4989466;28;20050;-74
2022/01/31 13:28:32;;;;;;;;;;;8.00;99.90;;;;;;4983071;28;20046;-74
2022/01/31 13:31:08;;;;;;;13.82;2.53;;;8.10;99.90;;;;;;4988443;28;20305;-73
2022/01/31 13:33:48;;;;;;;16.50;2.90;;;7.90;99.90;;;;;;4987224;28;20060;-75
2022/01/31 13:36:14;;;;;;;16.38;2.67;;;7.90;99.90;;;;;;4984037;28;20422;-75
2022/01/31 13:38:40;;;;;;;14.75;2.90;;;7.80;99.90;;;;;;4984811;28;20041;-74
2022/01/31 13:41:06;;;;;;;17.00;2.50;;;7.80;99.90;;;;;;4990566;28;20121;-74
2022/01/31 13:43:39;;;;;;;11.73;2.28;;;7.70;99.90;;;;;;4997531;28;20125;-74
2022/01/31 13:51:31;;;;;;;17.10;2.65;;;7.50;99.90;;;;;;4990158;28;20269;-74
2022/01/31 13:54:21;;;;;;;16.65;2.70;;;7.50;99.90;;;;;;5004154;28;20053;-74